createdAt,value
2023-04-14T00:00:11.366Z,3.2698
2023-04-14T00:01:14.348Z,3.2297
2023-04-14T00:02:17.328Z,3.1275
2023-04-14T00:03:20.467Z,3.0248
2023-04-14T00:04:23.400Z,3.2264
2023-04-14T00:05:26.149Z,2.9856
2023-04-14T00:06:29.105Z,3.4240
2023-04-14T00:07:32.047Z,3.5926
2023-04-14T00:08:34.963Z,3.0865
2023-04-14T00:09:37.940Z,3.4153
2023-04-14T00:10:40.875Z,3.4093
2023-04-14T00:11:43.865Z,2.9672
2023-04-14T00:12:46.789Z,3.0180
2023-04-14T00:13:49.732Z,3.0113
2023-04-14T00:14:52.695Z,3.3098
2023-04-14T00:15:55.648Z,3.0447
2023-04-14T00:16:58.647Z,3.1444
2023-04-14T00:18:01.625Z,3.0969
2023-04-14T00:19:04.511Z,3.0985
2023-04-14T00:20:07.457Z,3.2198
2023-04-14T00:21:10.424Z,3.3564
2023-04-14T00:22:13.350Z,3.3155
2023-04-14T00:23:16.318Z,3.1637
2023-04-14T00:24:19.379Z,3.3796
2023-04-14T00:25:22.281Z,3.3677
2023-04-14T00:26:25.151Z,3.3593
2023-04-14T00:27:28.110Z,3.2918
2023-04-14T00:28:31.044Z,3.2564
2023-04-14T00:29:33.997Z,3.1518
2023-04-14T00:30:36.968Z,3.3287
2023-04-14T00:31:39.981Z,3.4425
2023-04-14T00:32:42.890Z,3.3757
2023-04-14T00:33:45.803Z,3.3676
2023-04-14T00:34:48.775Z,3.0419
2023-04-14T00:35:51.706Z,3.6336
2023-04-14T00:36:54.645Z,3.8177
2023-04-14T00:37:57.604Z,3.3798
2023-04-14T00:39:00.714Z,3.5035
2023-04-14T00:40:03.498Z,3.4293
2023-04-14T00:41:06.475Z,3.4641
2023-04-14T00:42:09.398Z,3.5295
2023-04-14T00:43:12.369Z,3.6167
2023-04-14T00:44:15.314Z,3.3678
2023-04-14T00:45:18.239Z,4.1648
2023-04-14T00:46:21.251Z,3.8345
2023-04-14T00:47:24.144Z,3.9491
2023-04-14T00:48:27.105Z,3.6340
2023-04-14T00:49:30.112Z,3.7098
2023-04-14T00:50:33.007Z,3.7340
2023-04-14T00:51:36.093Z,4.0394
2023-04-14T00:52:38.898Z,3.4747
2023-04-14T00:53:41.832Z,3.8206
2023-04-14T00:54:44.772Z,3.9802
2023-04-14T00:55:47.708Z,4.0710
2023-04-14T00:56:50.678Z,3.9386
2023-04-14T00:57:53.596Z,4.1491
2023-04-14T00:58:56.586Z,4.1539
2023-04-14T00:59:59.483Z,4.1572
2023-04-14T01:01:02.493Z,3.5405
2023-04-14T01:02:05.488Z,3.6568
2023-04-14T01:03:08.584Z,3.9208
2023-04-14T01:04:11.372Z,3.7496
2023-04-14T01:05:14.475Z,3.9814
2023-04-14T01:06:17.149Z,3.6903
2023-04-14T01:07:20.103Z,3.7211
2023-04-14T01:08:23.052Z,3.4649
2023-04-14T01:09:26.019Z,3.6125
2023-04-14T01:10:28.920Z,3.7108
2023-04-14T01:11:31.920Z,3.7772
2023-04-14T01:12:34.801Z,3.9496
2023-04-14T01:13:37.739Z,3.8686
2023-04-14T01:14:40.695Z,3.5995
2023-04-14T01:15:43.675Z,3.3642
2023-04-14T01:16:46.588Z,3.6518
2023-04-14T01:17:49.558Z,3.4017
2023-04-14T01:18:52.510Z,3.4816
2023-04-14T01:19:55.431Z,3.1053
2023-04-14T01:20:58.367Z,3.3443
2023-04-14T01:22:01.352Z,3.4020
2023-04-14T01:23:04.299Z,3.4252
2023-04-14T01:24:07.224Z,3.1810
2023-04-14T01:25:10.258Z,3.2044
2023-04-14T01:26:13.215Z,3.5595
2023-04-14T01:27:16.077Z,3.1772
2023-04-14T01:28:19.101Z,2.9978
2023-04-14T01:29:21.984Z,3.3618
2023-04-14T01:30:24.932Z,3.1757
2023-04-14T01:31:28.029Z,3.0715
2023-04-14T01:32:30.846Z,3.2495
2023-04-14T01:33:33.819Z,3.1182
2023-04-14T01:34:36.788Z,3.2573
2023-04-14T01:35:39.709Z,3.1893
2023-04-14T01:36:42.685Z,3.1074
2023-04-14T01:37:45.592Z,2.9606
2023-04-14T01:38:48.541Z,3.2990
2023-04-14T01:39:51.499Z,2.8624
2023-04-14T01:40:54.467Z,2.9382
2023-04-14T01:41:57.394Z,2.8923
2023-04-14T01:43:00.361Z,2.9756
2023-04-14T01:44:03.294Z,3.1412
2023-04-14T01:45:06.269Z,2.9253
2023-04-14T01:46:09.333Z,3.0721
2023-04-14T01:47:12.165Z,3.2503
2023-04-14T01:48:15.127Z,3.1483
2023-04-14T01:49:18.094Z,3.3249
2023-04-14T01:50:21.037Z,2.9696
2023-04-14T01:51:23.966Z,2.9938
2023-04-14T01:52:26.908Z,3.0124
2023-04-14T01:53:29.898Z,3.3627
2023-04-14T01:54:32.811Z,3.6689
2023-04-14T01:55:35.758Z,3.6817
2023-04-14T01:56:38.695Z,3.5264
2023-04-14T01:57:41.671Z,3.4369
2023-04-14T01:58:44.601Z,3.3746
2023-04-14T01:59:47.553Z,3.4301
2023-04-14T02:00:50.514Z,3.5524
2023-04-14T02:01:53.467Z,3.5927
2023-04-14T02:02:56.495Z,3.6927
2023-04-14T02:03:59.489Z,3.4347
2023-04-14T02:05:02.298Z,3.1720
2023-04-14T02:06:05.275Z,3.5163
2023-04-14T02:07:08.224Z,3.3819
2023-04-14T02:08:11.188Z,3.5065
2023-04-14T02:09:14.081Z,3.4471
2023-04-14T02:10:17.040Z,3.4189
2023-04-14T02:11:20.021Z,3.5022
2023-04-14T02:12:23.010Z,3.4850
2023-04-14T02:13:25.894Z,3.5141
2023-04-14T02:14:28.833Z,3.4433
2023-04-14T02:15:31.781Z,3.1767
2023-04-14T02:16:34.744Z,3.2805
2023-04-14T02:17:37.834Z,3.4934
2023-04-14T02:18:40.713Z,3.3906
2023-04-14T02:19:43.577Z,3.2785
2023-04-14T02:20:46.536Z,3.0987
2023-04-14T02:21:49.492Z,3.7101
2023-04-14T02:22:52.513Z,3.4056
2023-04-14T02:23:55.380Z,3.3714
2023-04-14T02:24:58.336Z,3.4843
2023-04-14T02:26:01.264Z,3.4975
2023-04-14T02:27:04.219Z,3.5183
2023-04-14T02:28:07.157Z,3.8698
2023-04-14T02:29:10.151Z,3.3279
2023-04-14T02:30:13.149Z,3.1443
2023-04-14T02:31:16.100Z,3.2869
2023-04-14T02:32:19.037Z,3.0742
2023-04-14T02:33:21.972Z,3.1009
2023-04-14T02:34:24.936Z,3.2889
2023-04-14T02:35:27.872Z,3.0911
2023-04-14T02:36:30.802Z,3.2189
2023-04-14T02:37:33.757Z,2.9881
2023-04-14T02:38:36.717Z,3.0760
2023-04-14T02:39:39.652Z,3.2933
2023-04-14T02:40:42.620Z,3.0536
2023-04-14T02:41:45.568Z,2.9215
2023-04-14T02:42:48.515Z,2.8718
2023-04-14T02:43:51.458Z,3.2515
2023-04-14T02:44:54.399Z,3.1986
2023-04-14T02:45:57.396Z,3.2249
2023-04-14T02:47:00.297Z,3.0314
2023-04-14T02:48:03.317Z,2.6407
2023-04-14T02:49:06.252Z,3.0054
2023-04-14T02:50:09.138Z,3.0622
2023-04-14T02:51:12.151Z,3.1911
2023-04-14T02:52:15.061Z,2.5747
2023-04-14T02:53:18.118Z,3.0774
2023-04-14T02:54:20.958Z,3.0088
2023-04-14T02:55:23.904Z,3.0039
2023-04-14T02:56:26.878Z,3.0484
2023-04-14T02:57:29.789Z,2.7428
2023-04-14T02:58:32.751Z,2.8709
2023-04-14T02:59:35.681Z,2.9428
2023-04-14T03:00:38.655Z,3.1222
2023-04-14T03:01:41.610Z,3.0388
2023-04-14T03:02:44.683Z,3.3676
2023-04-14T03:03:47.504Z,3.3542
2023-04-14T03:04:50.431Z,2.9049
2023-04-14T03:05:53.379Z,3.3500
2023-04-14T03:06:56.336Z,3.1102
2023-04-14T03:07:59.293Z,3.1004
2023-04-14T03:09:02.668Z,3.0533
2023-04-14T03:10:05.210Z,3.2509
2023-04-14T03:11:08.171Z,3.1575
2023-04-14T03:12:11.078Z,3.0408
2023-04-14T03:13:14.054Z,3.1029
2023-04-14T03:14:16.980Z,3.6034
2023-04-14T03:15:19.944Z,3.2139
2023-04-14T03:16:22.921Z,2.9639
2023-04-14T03:17:26.021Z,3.2529
2023-04-14T03:18:28.784Z,2.9171
2023-04-14T03:19:31.742Z,3.1744
2023-04-14T03:20:34.699Z,3.1442
2023-04-14T03:21:37.687Z,2.9901
2023-04-14T03:22:40.583Z,3.1871
2023-04-14T03:23:43.529Z,3.1083
2023-04-14T03:24:46.477Z,3.0176
2023-04-14T03:25:49.441Z,3.5745
2023-04-14T03:26:52.376Z,3.2557
2023-04-14T03:27:55.323Z,3.1495
2023-04-14T03:28:58.523Z,3.4631
2023-04-14T03:30:01.231Z,3.2969
2023-04-14T03:31:04.212Z,3.3860
2023-04-14T03:32:07.113Z,3.2352
2023-04-14T03:33:10.081Z,3.6545
2023-04-14T03:34:13.021Z,3.4545
2023-04-14T03:35:16.028Z,3.5471
2023-04-14T03:36:18.943Z,3.4557
2023-04-14T03:37:21.853Z,3.3001
2023-04-14T03:38:24.814Z,3.5079
2023-04-14T03:39:27.758Z,3.3392
2023-04-14T03:40:30.753Z,2.9815
2023-04-14T03:41:33.737Z,2.8286
2023-04-14T03:42:36.626Z,3.1752
2023-04-14T03:43:39.577Z,2.8820
2023-04-14T03:44:42.543Z,2.8587
2023-04-14T03:45:45.458Z,2.9106
2023-04-14T03:46:48.512Z,3.0337
2023-04-14T03:47:51.433Z,3.0663
2023-04-14T03:48:54.335Z,3.0967
2023-04-14T03:49:57.272Z,3.1563
2023-04-14T03:51:00.264Z,3.0627
2023-04-14T03:52:03.165Z,3.1269
2023-04-14T03:53:06.127Z,3.0602
2023-04-14T03:54:09.074Z,2.9236
2023-04-14T03:55:12.152Z,3.3293
2023-04-14T03:56:14.978Z,3.1661
2023-04-14T03:57:17.942Z,2.9011
2023-04-14T03:58:20.872Z,2.8826
2023-04-14T03:59:24.073Z,3.3301
2023-04-14T04:00:26.769Z,3.3716
2023-04-14T04:01:29.740Z,2.8727
2023-04-14T04:02:32.820Z,3.1201
2023-04-14T04:03:36.065Z,2.9468
2023-04-14T04:04:38.683Z,2.9824
2023-04-14T04:05:41.571Z,3.1334
2023-04-14T04:06:44.479Z,3.1025
2023-04-14T04:07:47.416Z,3.2440
2023-04-14T04:08:50.359Z,3.1817
2023-04-14T04:09:53.302Z,3.2246
2023-04-14T04:10:56.249Z,9.3082
2023-04-14T04:11:59.204Z,4.7094
2023-04-14T04:13:02.145Z,4.4906
2023-04-14T04:14:05.103Z,14.9221
2023-04-14T04:15:08.130Z,18.3258
2023-04-14T04:16:11.020Z,10.2152
2023-04-14T04:17:13.933Z,4.4053
2023-04-14T04:18:16.888Z,4.2625
2023-04-14T04:19:19.831Z,4.9606
2023-04-14T04:20:22.786Z,5.9340
2023-04-14T04:21:25.725Z,9.0514
2023-04-14T04:22:28.686Z,6.5996
2023-04-14T04:23:31.636Z,6.3244
2023-04-14T04:24:34.585Z,6.5139
2023-04-14T04:25:37.599Z,5.1771
2023-04-14T04:26:40.470Z,5.7322
2023-04-14T04:27:43.443Z,6.7232
2023-04-14T04:28:46.382Z,5.5066
2023-04-14T04:29:53.502Z,4.7020
2023-04-14T04:30:52.275Z,4.4917
2023-04-14T04:31:55.470Z,4.1848
2023-04-14T04:32:58.200Z,4.2545
2023-04-14T04:34:01.267Z,4.4156
2023-04-14T04:35:04.060Z,4.5273
2023-04-14T04:36:07.017Z,4.0020
2023-04-14T04:37:09.979Z,4.1174
2023-04-14T04:38:12.923Z,4.0773
2023-04-14T04:39:15.856Z,3.6403
2023-04-14T04:40:18.871Z,3.1887
2023-04-14T04:41:21.778Z,3.2179
2023-04-14T04:42:24.731Z,3.9614
2023-04-14T04:43:27.670Z,3.9729
2023-04-14T04:44:30.647Z,3.9329
2023-04-14T04:45:33.577Z,3.8063
2023-04-14T04:46:36.766Z,3.9500
2023-04-14T04:47:39.596Z,3.8494
2023-04-14T04:48:42.539Z,4.2171
2023-04-14T04:49:45.384Z,4.7222
2023-04-14T04:50:48.337Z,4.4499
2023-04-14T04:51:51.295Z,3.4757
2023-04-14T04:52:54.249Z,3.8680
2023-04-14T04:53:57.186Z,3.8521
2023-04-14T04:55:00.187Z,3.4995
2023-04-14T04:56:03.072Z,3.5414
2023-04-14T04:57:06.046Z,3.6847
2023-04-14T04:58:08.980Z,3.3519
2023-04-14T04:59:11.918Z,3.3092
2023-04-14T05:00:14.860Z,3.5430
2023-04-14T05:01:17.871Z,3.5892
2023-04-14T05:02:20.923Z,3.6307
2023-04-14T05:03:23.776Z,3.2585
2023-04-14T05:04:26.673Z,3.8241
2023-04-14T05:05:29.711Z,4.0055
2023-04-14T05:06:32.535Z,4.9578
2023-04-14T05:07:35.500Z,4.9403
2023-04-14T05:08:38.447Z,4.8487
2023-04-14T05:09:41.453Z,5.3647
2023-04-14T05:10:44.411Z,5.9934
2023-04-14T05:11:47.290Z,5.7872
2023-04-14T05:12:50.224Z,5.7225
2023-04-14T05:13:53.183Z,5.2362
2023-04-14T05:14:56.202Z,9.1592
2023-04-14T05:15:59.196Z,14.8521
2023-04-14T05:17:02.024Z,10.6255
2023-04-14T05:18:05.032Z,7.3313
2023-04-14T05:19:07.937Z,6.0517
2023-04-14T05:20:10.896Z,5.7494
2023-04-14T05:21:13.819Z,6.3969
2023-04-14T05:22:16.813Z,5.9541
2023-04-14T05:23:19.762Z,5.9313
2023-04-14T05:24:22.691Z,6.2567
2023-04-14T05:25:25.630Z,6.6302
2023-04-14T05:26:44.637Z,13.3118
2023-04-14T05:27:31.527Z,8.2332
2023-04-14T05:28:34.482Z,7.3227
2023-04-14T05:29:37.423Z,7.0269
2023-04-14T05:30:40.372Z,13.3534
2023-04-14T05:31:43.548Z,8.4734
2023-04-14T05:32:46.346Z,7.1994
2023-04-14T05:33:49.227Z,8.1120
2023-04-14T05:34:52.177Z,8.4986
2023-04-14T05:35:55.119Z,7.3298
2023-04-14T05:36:58.103Z,8.5333
2023-04-14T05:38:01.030Z,8.5910
2023-04-14T05:39:04.062Z,8.0241
2023-04-14T05:40:06.922Z,7.5372
2023-04-14T05:41:09.909Z,8.0014
2023-04-14T05:42:12.828Z,8.5889
2023-04-14T05:43:15.790Z,17.9620
2023-04-14T05:44:18.714Z,12.4593
2023-04-14T05:45:21.679Z,9.8565
2023-04-14T05:46:24.748Z,8.4411
2023-04-14T05:47:27.590Z,8.8815
2023-04-14T05:48:30.783Z,8.8545
2023-04-14T05:49:33.506Z,10.4669
2023-04-14T05:50:36.410Z,11.0524
2023-04-14T05:51:39.382Z,13.8118
2023-04-14T05:52:42.319Z,13.8087
2023-04-14T05:53:45.293Z,11.0227
2023-04-14T05:54:48.207Z,10.7500
2023-04-14T05:55:51.168Z,10.2719
2023-04-14T05:56:54.126Z,9.3491
2023-04-14T05:57:57.058Z,8.9674
2023-04-14T05:59:00.038Z,10.1637
2023-04-14T06:00:02.963Z,9.2307
2023-04-14T06:01:05.901Z,8.9664
2023-04-14T06:02:08.909Z,9.2113
2023-04-14T06:03:11.951Z,9.7941
2023-04-14T06:04:14.932Z,9.3656
2023-04-14T06:05:17.783Z,9.0367
2023-04-14T06:06:20.656Z,8.5472
2023-04-14T06:07:23.600Z,7.6934
2023-04-14T06:08:26.547Z,11.7860
2023-04-14T06:09:29.527Z,47.3378
2023-04-14T06:10:32.458Z,29.9258
2023-04-14T06:11:35.401Z,21.1442
2023-04-14T06:12:38.335Z,9.5667
2023-04-14T06:13:41.279Z,8.2237
2023-04-14T06:14:44.232Z,7.9232
2023-04-14T06:15:47.187Z,7.9128
2023-04-14T06:16:50.216Z,7.8854
2023-04-14T06:17:53.108Z,8.0553
2023-04-14T06:18:56.028Z,8.0932
2023-04-14T06:19:58.969Z,7.8759
2023-04-14T06:21:01.930Z,7.4436
2023-04-14T06:22:04.870Z,7.5903
2023-04-14T06:23:07.811Z,7.6480
2023-04-14T06:24:10.754Z,8.0201
2023-04-14T06:25:13.718Z,7.8800
2023-04-14T06:26:16.693Z,7.4690
2023-04-14T06:27:19.627Z,6.7290
2023-04-14T06:28:22.574Z,5.9446
2023-04-14T06:29:25.500Z,5.9491
2023-04-14T06:30:28.550Z,5.5887
2023-04-14T06:31:31.475Z,5.5768
2023-04-14T06:32:34.391Z,5.8543
2023-04-14T06:33:37.317Z,7.0513
2023-04-14T06:34:40.249Z,7.3140
2023-04-14T06:35:43.196Z,6.7807
2023-04-14T06:36:46.179Z,6.2613
2023-04-14T06:37:49.227Z,6.0866
2023-04-14T06:38:52.117Z,6.1100
2023-04-14T06:39:55.068Z,5.9091
2023-04-14T06:40:58.026Z,5.9122
2023-04-14T06:42:00.966Z,6.5604
2023-04-14T06:43:03.904Z,6.7657
2023-04-14T06:44:06.859Z,6.7353
2023-04-14T06:45:09.957Z,6.5202
2023-04-14T06:46:13.042Z,6.5112
2023-04-14T06:47:15.699Z,6.7559
2023-04-14T06:48:18.666Z,9.2311
2023-04-14T06:49:21.592Z,12.9107
2023-04-14T06:50:24.551Z,48.4586
2023-04-14T06:51:27.508Z,22.3758
2023-04-14T06:52:30.471Z,7.9922
2023-04-14T06:53:33.433Z,6.6515
2023-04-14T06:54:36.341Z,6.6553
2023-04-14T06:55:39.276Z,7.3205
2023-04-14T06:56:42.247Z,8.6914
2023-04-14T06:57:45.171Z,7.8835
2023-04-14T06:58:48.165Z,10.6917
2023-04-14T06:59:51.070Z,9.0042
2023-04-14T07:00:54.041Z,7.5635
2023-04-14T07:01:57.164Z,7.1997
2023-04-14T07:03:00.054Z,11.7064
2023-04-14T07:04:05.092Z,12.7181
2023-04-14T07:05:05.905Z,9.7039
2023-04-14T07:06:08.734Z,6.9191
2023-04-14T07:07:11.712Z,5.7848
2023-04-14T07:08:14.655Z,5.8692
2023-04-14T07:09:17.609Z,5.5405
2023-04-14T07:10:20.512Z,5.2226
2023-04-14T07:11:23.526Z,5.5204
2023-04-14T07:12:26.423Z,5.8367
2023-04-14T07:13:29.439Z,6.1475
2023-04-14T07:14:32.305Z,6.1108
2023-04-14T07:15:35.281Z,5.7857
2023-04-14T07:16:38.180Z,5.5381
2023-04-14T07:17:41.152Z,5.9109
2023-04-14T07:18:44.094Z,6.5529
2023-04-14T07:19:47.036Z,6.0738
2023-04-14T07:20:49.965Z,6.0553
2023-04-14T07:21:52.934Z,5.7829
2023-04-14T07:22:55.910Z,5.5686
2023-04-14T07:23:59.066Z,5.3933
2023-04-14T07:25:01.780Z,5.7196
2023-04-14T07:26:04.721Z,6.0299
2023-04-14T07:27:07.632Z,6.0972
2023-04-14T07:28:10.667Z,5.9688
2023-04-14T07:29:13.568Z,5.7051
2023-04-14T07:30:16.453Z,6.0110
2023-04-14T07:31:19.452Z,5.8085
2023-04-14T07:32:22.333Z,5.9971
2023-04-14T07:33:25.287Z,5.7613
2023-04-14T07:34:28.215Z,5.0904
2023-04-14T07:35:31.176Z,5.1763
2023-04-14T07:36:34.120Z,5.1107
2023-04-14T07:37:37.053Z,4.9465
2023-04-14T07:38:40.006Z,4.8002
2023-04-14T07:39:42.935Z,4.7449
2023-04-14T07:40:45.916Z,4.5217
2023-04-14T07:41:48.868Z,4.7060
2023-04-14T07:42:51.768Z,4.5331
2023-04-14T07:43:54.720Z,4.3579
2023-04-14T07:44:57.679Z,4.7990
2023-04-14T07:46:00.628Z,4.3684
2023-04-14T07:47:03.563Z,3.9723
2023-04-14T07:48:06.549Z,3.9598
2023-04-14T07:49:09.460Z,4.1716
2023-04-14T07:50:12.410Z,4.0238
2023-04-14T07:51:15.323Z,3.9510
2023-04-14T07:52:18.280Z,3.6599
2023-04-14T07:53:21.218Z,3.5602
2023-04-14T07:54:24.147Z,3.4534
2023-04-14T07:55:27.652Z,2.9573
2023-04-14T07:56:30.055Z,3.1320
2023-04-14T07:57:32.990Z,3.2918
2023-04-14T07:58:35.948Z,3.5303
2023-04-14T07:59:38.884Z,3.5151
2023-04-14T08:00:41.847Z,3.2813
2023-04-14T08:01:44.825Z,3.5647
2023-04-14T08:02:47.921Z,3.3462
2023-04-14T08:03:50.898Z,3.3338
2023-04-14T08:04:53.663Z,3.0923
2023-04-14T08:05:56.554Z,3.3951
2023-04-14T08:06:59.522Z,3.2430
2023-04-14T08:08:02.505Z,3.3062
2023-04-14T08:09:05.397Z,3.4764
2023-04-14T08:10:08.368Z,3.5438
2023-04-14T08:11:11.283Z,3.2877
2023-04-14T08:12:14.377Z,3.2325
2023-04-14T08:13:17.174Z,3.2335
2023-04-14T08:14:20.124Z,2.9886
2023-04-14T08:15:23.150Z,3.2004
2023-04-14T08:16:26.108Z,3.0784
2023-04-14T08:17:29.073Z,3.2495
2023-04-14T08:18:32.007Z,3.0111
2023-04-14T08:19:34.933Z,2.7907
2023-04-14T08:20:37.796Z,3.2217
2023-04-14T08:21:40.741Z,3.2797
2023-04-14T08:22:43.697Z,3.1052
2023-04-14T08:23:46.642Z,2.9509
2023-04-14T08:24:49.599Z,3.2011
2023-04-14T08:25:52.534Z,3.1877
2023-04-14T08:26:55.485Z,2.8323
2023-04-14T08:27:58.416Z,2.7772
2023-04-14T08:29:01.789Z,2.8285
2023-04-14T08:30:04.334Z,2.9950
2023-04-14T08:31:07.267Z,2.9840
2023-04-14T08:32:10.234Z,2.7354
2023-04-14T08:33:13.188Z,2.3748
2023-04-14T08:34:19.344Z,2.7504
2023-04-14T08:35:39.096Z,2.9728
2023-04-14T08:36:21.964Z,2.7950
2023-04-14T08:37:24.921Z,2.6137
2023-04-14T08:38:27.857Z,2.5219
2023-04-14T08:39:30.809Z,2.6008
2023-04-14T08:40:33.761Z,2.5447
2023-04-14T08:41:36.700Z,2.5291
2023-04-14T08:42:39.622Z,2.2911
2023-04-14T08:43:42.740Z,2.3875
2023-04-14T08:44:45.519Z,2.3797
2023-04-14T08:45:48.537Z,2.0984
2023-04-14T08:46:51.405Z,1.6567
2023-04-14T08:47:54.373Z,1.9607
2023-04-14T08:48:57.298Z,1.6531
2023-04-14T08:50:00.298Z,1.5574
2023-04-14T08:51:03.208Z,1.2793
2023-04-14T08:52:06.131Z,2.1094
2023-04-14T08:53:09.085Z,2.1450
2023-04-14T08:54:12.030Z,2.0847
2023-04-14T08:55:15.005Z,2.1372
2023-04-14T08:56:17.915Z,2.2792
2023-04-14T08:57:20.869Z,2.3063
2023-04-14T08:58:23.794Z,2.1416
2023-04-14T08:59:26.764Z,2.0010
2023-04-14T09:00:29.710Z,2.1851
2023-04-14T09:01:35.684Z,2.0504
2023-04-14T09:02:35.818Z,2.1943
2023-04-14T09:03:38.645Z,2.2001
2023-04-14T09:04:41.568Z,1.7946
2023-04-14T09:05:44.433Z,1.7497
2023-04-14T09:06:47.350Z,1.7439
2023-04-14T09:07:50.313Z,1.5558
2023-04-14T09:08:53.278Z,1.8766
2023-04-14T09:09:56.200Z,1.5403
2023-04-14T09:10:59.138Z,1.7858
2023-04-14T09:12:02.070Z,1.8693
2023-04-14T09:13:05.010Z,1.8999
2023-04-14T09:14:07.972Z,2.0044
2023-04-14T09:15:10.905Z,1.7502
2023-04-14T09:16:13.874Z,1.7770
2023-04-14T09:17:16.953Z,1.6754
2023-04-14T09:18:19.729Z,1.4032
2023-04-14T09:19:22.689Z,1.8676
2023-04-14T09:20:35.498Z,1.7357
2023-04-14T09:21:50.955Z,1.4719
2023-04-14T09:22:31.487Z,1.9619
2023-04-14T09:23:34.498Z,1.6489
2023-04-14T09:24:37.430Z,1.9793
2023-04-14T09:25:40.318Z,1.8861
2023-04-14T09:26:43.254Z,1.7512
2023-04-14T09:27:46.188Z,1.7003
2023-04-14T09:28:49.141Z,1.9341
2023-04-14T09:29:52.102Z,1.7799
2023-04-14T09:30:55.075Z,1.5981
2023-04-14T09:31:57.943Z,1.8995
2023-04-14T09:33:00.965Z,1.8630
2023-04-14T09:34:04.029Z,2.0725
2023-04-14T09:35:06.798Z,1.5184
2023-04-14T09:36:09.713Z,1.7859
2023-04-14T09:37:12.648Z,2.0700
2023-04-14T09:38:15.583Z,2.1192
2023-04-14T09:39:18.547Z,2.0888
2023-04-14T09:40:21.521Z,2.0204
2023-04-14T09:41:24.425Z,2.1681
2023-04-14T09:42:27.391Z,1.9746
2023-04-14T09:43:30.295Z,1.7311
2023-04-14T09:44:33.249Z,1.9928
2023-04-14T09:45:36.192Z,1.9838
2023-04-14T09:46:39.212Z,2.0132
2023-04-14T09:47:42.111Z,2.1058
2023-04-14T09:48:45.036Z,1.9912
2023-04-14T09:49:47.947Z,1.8929
2023-04-14T09:50:50.878Z,1.8547
2023-04-14T09:51:53.842Z,1.8663
2023-04-14T09:52:56.777Z,1.8337
2023-04-14T09:53:59.714Z,1.9729
2023-04-14T09:55:02.661Z,1.8238
2023-04-14T09:56:05.600Z,2.0452
2023-04-14T09:57:08.547Z,2.0501
2023-04-14T09:58:11.531Z,2.0453
2023-04-14T09:59:14.441Z,1.6383
2023-04-14T10:00:17.398Z,1.7897
2023-04-14T10:01:20.426Z,1.9279
2023-04-14T10:02:23.507Z,1.9529
2023-04-14T10:03:26.312Z,1.9405
2023-04-14T10:04:29.206Z,1.8249
2023-04-14T10:05:34.784Z,1.8904
2023-04-14T10:06:35.084Z,1.5079
2023-04-14T10:07:37.999Z,1.6134
2023-04-14T10:08:41.007Z,1.8139
2023-04-14T10:09:43.880Z,1.9840
2023-04-14T10:10:46.841Z,1.6720
2023-04-14T10:11:49.765Z,1.8027
2023-04-14T10:12:52.788Z,1.7790
2023-04-14T10:13:55.694Z,1.8306
2023-04-14T10:14:58.613Z,2.0614
2023-04-14T10:16:01.637Z,1.7798
2023-04-14T10:17:04.496Z,1.7855
2023-04-14T10:18:07.514Z,1.7971
2023-04-14T10:19:10.395Z,1.6712
2023-04-14T10:20:13.325Z,1.7820
2023-04-14T10:21:16.459Z,1.7001
2023-04-14T10:22:19.249Z,1.5665
2023-04-14T10:23:22.183Z,1.9682
2023-04-14T10:24:25.128Z,1.9682
2023-04-14T10:25:28.087Z,1.7606
2023-04-14T10:26:31.008Z,1.8311
2023-04-14T10:27:33.971Z,1.9296
2023-04-14T10:28:36.896Z,1.5512
2023-04-14T10:29:39.850Z,1.5627
2023-04-14T10:30:42.778Z,1.6294
2023-04-14T10:31:45.824Z,1.7412
2023-04-14T10:32:48.725Z,1.7872
2023-04-14T10:33:51.640Z,1.7352
2023-04-14T10:34:54.590Z,1.6479
2023-04-14T10:35:57.537Z,1.7865
2023-04-14T10:37:00.479Z,1.6751
2023-04-14T10:38:03.443Z,1.8729
2023-04-14T10:39:06.364Z,2.3389
2023-04-14T10:40:09.316Z,1.9715
2023-04-14T10:41:12.291Z,2.4193
2023-04-14T10:42:15.208Z,2.1597
2023-04-14T10:43:18.148Z,2.0953
2023-04-14T10:44:21.088Z,2.3383
2023-04-14T10:45:24.096Z,2.0852
2023-04-14T10:46:27.250Z,2.5080
2023-04-14T10:47:30.054Z,2.0901
2023-04-14T10:48:32.945Z,1.7566
2023-04-14T10:49:35.882Z,1.7492
2023-04-14T10:50:38.837Z,1.7163
2023-04-14T10:51:41.779Z,1.6662
2023-04-14T10:52:44.943Z,1.6299
2023-04-14T10:53:47.682Z,1.7129
2023-04-14T10:54:50.590Z,1.7930
2023-04-14T10:55:53.546Z,1.7047
2023-04-14T10:56:56.482Z,1.6931
2023-04-14T10:57:59.475Z,1.9329
2023-04-14T10:59:02.401Z,2.2020
2023-04-14T11:00:05.359Z,2.0474
2023-04-14T11:01:08.294Z,1.8356
2023-04-14T11:02:11.289Z,1.9795
2023-04-14T11:03:14.309Z,1.8526
2023-04-14T11:04:17.203Z,1.9102
2023-04-14T11:05:20.094Z,1.7703
2023-04-14T11:06:22.993Z,1.7451
2023-04-14T11:07:25.960Z,1.8658
2023-04-14T11:08:28.913Z,1.6681
2023-04-14T11:09:31.848Z,2.1666
2023-04-14T11:10:34.776Z,2.2380
2023-04-14T11:11:37.939Z,1.7041
2023-04-14T11:12:40.669Z,1.9696
2023-04-14T11:13:43.669Z,1.7620
2023-04-14T11:14:46.573Z,2.0079
2023-04-14T11:15:49.527Z,1.5743
2023-04-14T11:17:02.535Z,1.8606
2023-04-14T11:17:55.468Z,1.6313
2023-04-14T11:18:58.371Z,2.3503
2023-04-14T11:20:01.336Z,2.0555
2023-04-14T11:21:04.253Z,1.7492
2023-04-14T11:22:07.222Z,1.9461
2023-04-14T11:23:10.205Z,1.5386
2023-04-14T11:24:13.104Z,1.5302
2023-04-14T11:25:16.128Z,1.7051
2023-04-14T11:26:19.001Z,1.5951
2023-04-14T11:27:21.925Z,1.7433
2023-04-14T11:28:24.884Z,1.5014
2023-04-14T11:29:27.985Z,1.7310
2023-04-14T11:30:30.813Z,1.4679
2023-04-14T11:31:33.739Z,1.5925
2023-04-14T11:32:36.706Z,1.8483
2023-04-14T11:33:39.670Z,1.8461
2023-04-14T11:34:42.609Z,1.9551
2023-04-14T11:35:45.566Z,1.7073
2023-04-14T11:36:48.469Z,1.6031
2023-04-14T11:37:51.392Z,1.8649
2023-04-14T11:38:54.357Z,1.7129
2023-04-14T11:39:57.284Z,1.6234
2023-04-14T11:41:00.232Z,1.6679
2023-04-14T11:42:03.215Z,1.4080
2023-04-14T11:43:06.160Z,1.4950
2023-04-14T11:44:09.093Z,1.7133
2023-04-14T11:45:12.024Z,1.4166
2023-04-14T11:46:15.023Z,1.5789
2023-04-14T11:47:17.943Z,1.4853
2023-04-14T11:48:20.876Z,1.4319
2023-04-14T11:49:23.813Z,1.6432
2023-04-14T11:50:26.773Z,1.5831
2023-04-14T11:51:29.707Z,1.7450
2023-04-14T11:52:32.707Z,2.0029
2023-04-14T11:53:35.624Z,1.5987
2023-04-14T11:54:38.585Z,1.5774
2023-04-14T11:55:41.547Z,1.6376
2023-04-14T11:56:44.428Z,1.5505
2023-04-14T11:57:47.389Z,1.2248
2023-04-14T11:58:50.339Z,1.6488
2023-04-14T11:59:53.301Z,1.3505
2023-04-14T12:00:56.570Z,1.5406
2023-04-14T12:01:59.246Z,1.6595
2023-04-14T12:03:02.377Z,1.8614
2023-04-14T12:04:05.211Z,1.6574
2023-04-14T12:05:08.176Z,1.5414
2023-04-14T12:06:10.980Z,1.6067
2023-04-14T12:07:13.948Z,1.5420
2023-04-14T12:08:16.947Z,1.6010
2023-04-14T12:09:19.853Z,1.7495
2023-04-14T12:10:22.824Z,1.7179
2023-04-14T12:11:25.749Z,2.0584
2023-04-14T12:12:28.899Z,1.8060
2023-04-14T12:13:31.661Z,1.4961
2023-04-14T12:14:34.641Z,1.8100
2023-04-14T12:15:37.680Z,1.6246
2023-04-14T12:16:40.649Z,1.3744
2023-04-14T12:17:43.530Z,1.6074
2023-04-14T12:18:46.451Z,1.6404
2023-04-14T12:19:49.408Z,1.6015
2023-04-14T12:20:52.348Z,1.7191
2023-04-14T12:21:55.284Z,2.2558
2023-04-14T12:22:58.245Z,2.3131
2023-04-14T12:24:01.205Z,2.1078
2023-04-14T12:25:04.160Z,2.0476
2023-04-14T12:26:07.111Z,1.9259
2023-04-14T12:27:10.076Z,2.0283
2023-04-14T12:28:13.025Z,1.6961
2023-04-14T12:29:15.962Z,1.6202
2023-04-14T12:30:18.929Z,1.6656
2023-04-14T12:31:21.925Z,1.4810
2023-04-14T12:32:24.885Z,1.7507
2023-04-14T12:33:27.789Z,1.7379
2023-04-14T12:34:30.709Z,1.6319
2023-04-14T12:35:33.721Z,1.6801
2023-04-14T12:36:49.742Z,1.7581
2023-04-14T12:37:39.581Z,1.6694
2023-04-14T12:38:42.543Z,1.5859
2023-04-14T12:39:45.498Z,1.7412
2023-04-14T12:40:48.439Z,1.5319
2023-04-14T12:41:51.394Z,1.3759
2023-04-14T12:42:54.340Z,1.2844
2023-04-14T12:43:57.321Z,1.5959
2023-04-14T12:45:00.270Z,1.4384
2023-04-14T12:46:03.221Z,1.4383
2023-04-14T12:47:06.303Z,1.5124
2023-04-14T12:48:09.144Z,1.3851
2023-04-14T12:49:12.055Z,1.2675
2023-04-14T12:50:15.039Z,1.4068
2023-04-14T12:51:18.021Z,1.3193
2023-04-14T12:52:20.926Z,1.3881
2023-04-14T12:53:23.860Z,1.5537
2023-04-14T12:54:26.864Z,1.3534
2023-04-14T12:55:29.818Z,1.5830
2023-04-14T12:56:32.721Z,1.5514
2023-04-14T12:57:35.695Z,1.4422
2023-04-14T12:58:38.612Z,1.6804
2023-04-14T12:59:41.616Z,1.6650
2023-04-14T13:00:44.527Z,1.6098
2023-04-14T13:01:47.541Z,1.4829
2023-04-14T13:02:50.511Z,1.5223
2023-04-14T13:03:53.494Z,1.4335